Hauptseite
METAR-TAF:

METAR-TAF

Flughäfen :

Flughafen Irkutsk

Irkutsk, Russland

Breite: 52-16N, Länge: 104-19E, Höhe: 513 m

Beobachtung

Neuester Wetterbericht von vor 30 Minuten, um 15:00 UTC
Wind 8 kt aus Süd
Temperatur 13°C
Luftfeuchtigkeit 47%
Luftdruck 1013 hPa
Sichtweite 10 km oder mehr
keine Wolken unter 1500 m und keine Kumulonimbus oder Gewitterwolken

METAR: UIII 271500Z 17004MPS CAVOK 13/02 Q1013 R12/60D NOSIG RMK QFE718/0957

Zeit: 23:30 (15:30 UTC)

Prognose

Neuester Wetterbericht von vor 1 Stunde und 30 Minuten, um 14:00 UTC
Gültige Prognose vom 27 um 15 UTC bis 28 um 15 UTC
Wind 10 kt aus Süd/Südost
Sichtweite 10 km oder mehr
keine Wolken unter 1500 m und keine Kumulonimbus oder Gewitterwolken

TAF: UIII 271400Z 2715/2815 15005MPS CAVOK

Wetterbeobachtungen und Prognosen von mehr als 4000 Flughäfen (METAR und TAF Bericht).

Die verfügbaren Stationen werden durch gelbe und rote Markierungen auf der Karte dargestellt.

Führen Sie die Maus auf sie, um den Namen der Station zu sehen.

Darauf klicken, um die Beobachtung von Wetterbeobachtungen und Prognosen zu sehen.

Um die Karte zu ändern : klicken Sie auf den grünen Tasten mit einem schwarzen Kreuz Zum Vergrößern, auf den grünen Button mit einem Gedankenstrich zu verkleinern, oder auf die grünen Pfeile für benachbarte Karten.


METAR-TAF: